X  CloseMetar Aviation Weather Data     LIRA Ciampino–G. B. Pastine International

Temperatura

21°C Temperatura

14°C Punto di rugiada

64% Umidità



Vento

23 KM/H

14 MPH

 6 M/S

12 KTS



230°
Sud Ovest
Condizioni attuali

Prevalentemente nuvoloso Prevalentemente nuvoloso
Pressione atmosferica 1001.92 (hPa) - 29.59 (in)
Visibilità 6.2 (mi) - 10 (km)
Aeroporto
Airport-code LIRA

Posizione Ciampino–G. B. Pastine International 48 (km)

Metar:
LIRA 051250Z 23012KT 9999 BKN020 21/14 Q1002

Ore: 05-06-2020 14:50